sensor_id;sensor_type;location;lat;lon;timestamp;temperature;humidity
30534;DHT22;17318;52.390;9.754;2023-03-13T00:01:27;10.80;99.90
30534;DHT22;17318;52.390;9.754;2023-03-13T00:03:53;10.80;99.90
30534;DHT22;17318;52.390;9.754;2023-03-13T00:06:21;10.90;99.90
30534;DHT22;17318;52.390;9.754;2023-03-13T00:08:47;10.90;99.90
30534;DHT22;17318;52.390;9.754;2023-03-13T00:11:14;10.70;99.90
30534;DHT22;17318;52.390;9.754;2023-03-13T00:13:41;10.90;99.90
30534;DHT22;17318;52.390;9.754;2023-03-13T00:16:12;10.80;99.90
30534;DHT22;17318;52.390;9.754;2023-03-13T00:18:38;10.80;99.90
30534;DHT22;17318;52.390;9.754;2023-03-13T00:21:06;11.00;99.90
30534;DHT22;17318;52.390;9.754;2023-03-13T00:23:32;10.80;99.90
30534;DHT22;17318;52.390;9.754;2023-03-13T00:26:00;10.80;99.90
30534;DHT22;17318;52.390;9.754;2023-03-13T00:28:28;10.80;99.90
30534;DHT22;17318;52.390;9.754;2023-03-13T00:31:05;10.70;99.90
30534;DHT22;17318;52.390;9.754;2023-03-13T00:33:32;10.70;99.90
30534;DHT22;17318;52.390;9.754;2023-03-13T00:36:01;10.80;99.90
30534;DHT22;17318;52.390;9.754;2023-03-13T00:38:28;10.80;99.90
30534;DHT22;17318;52.390;9.754;2023-03-13T00:41:08;10.80;99.90
30534;DHT22;17318;52.390;9.754;2023-03-13T00:43:36;10.80;99.90
30534;DHT22;17318;52.390;9.754;2023-03-13T00:46:03;10.80;99.90
30534;DHT22;17318;52.390;9.754;2023-03-13T00:48:29;10.80;99.90
30534;DHT22;17318;52.390;9.754;2023-03-13T00:50:55;10.80;99.90
30534;DHT22;17318;52.390;9.754;2023-03-13T00:53:21;10.80;99.90
30534;DHT22;17318;52.390;9.754;2023-03-13T00:58:20;10.80;99.90
30534;DHT22;17318;52.390;9.754;2023-03-13T01:00:46;10.90;99.90
30534;DHT22;17318;52.390;9.754;2023-03-13T01:03:12;10.90;99.90
30534;DHT22;17318;52.390;9.754;2023-03-13T01:05:37;10.80;99.90
30534;DHT22;17318;52.390;9.754;2023-03-13T01:08:03;10.90;99.90
30534;DHT22;17318;52.390;9.754;2023-03-13T01:10:29;10.80;99.90
30534;DHT22;17318;52.390;9.754;2023-03-13T01:12:54;11.10;99.90
30534;DHT22;17318;52.390;9.754;2023-03-13T01:15:20;10.80;99.90
30534;DHT22;17318;52.390;9.754;2023-03-13T01:17:46;10.90;99.90
30534;DHT22;17318;52.390;9.754;2023-03-13T01:20:12;10.90;99.90
30534;DHT22;17318;52.390;9.754;2023-03-13T01:22:37;10.90;99.90
30534;DHT22;17318;52.390;9.754;2023-03-13T01:25:04;10.90;99.90
30534;DHT22;17318;52.390;9.754;2023-03-13T01:27:34;10.90;99.90
30534;DHT22;17318;52.390;9.754;2023-03-13T01:29:59;10.90;99.90
30534;DHT22;17318;52.390;9.754;2023-03-13T01:32:25;10.90;99.90
30534;DHT22;17318;52.390;9.754;2023-03-13T01:34:51;10.90;99.90
30534;DHT22;17318;52.390;9.754;2023-03-13T01:37:17;10.80;99.90
30534;DHT22;17318;52.390;9.754;2023-03-13T01:39:43;10.90;99.90
30534;DHT22;17318;52.390;9.754;2023-03-13T01:42:09;10.90;99.90
30534;DHT22;17318;52.390;9.754;2023-03-13T01:44:55;10.90;99.90
30534;DHT22;17318;52.390;9.754;2023-03-13T01:47:21;10.90;99.90
30534;DHT22;17318;52.390;9.754;2023-03-13T01:49:48;10.90;99.90
30534;DHT22;17318;52.390;9.754;2023-03-13T01:52:26;10.90;99.90
30534;DHT22;17318;52.390;9.754;2023-03-13T01:55:06;10.80;99.90
30534;DHT22;17318;52.390;9.754;2023-03-13T01:57:37;10.80;99.90
30534;DHT22;17318;52.390;9.754;2023-03-13T02:00:14;10.80;99.90
30534;DHT22;17318;52.390;9.754;2023-03-13T02:02:47;10.80;99.90
30534;DHT22;17318;52.390;9.754;2023-03-13T02:05:14;10.70;99.90
30534;DHT22;17318;52.390;9.754;2023-03-13T02:07:55;10.70;99.90
30534;DHT22;17318;52.390;9.754;2023-03-13T02:10:22;10.60;99.90
30534;DHT22;17318;52.390;9.754;2023-03-13T02:12:48;10.60;99.90
30534;DHT22;17318;52.390;9.754;2023-03-13T02:15:19;10.70;99.90
30534;DHT22;17318;52.390;9.754;2023-03-13T02:17:48;10.80;99.90
30534;DHT22;17318;52.390;9.754;2023-03-13T02:20:17;10.60;99.90
30534;DHT22;17318;52.390;9.754;2023-03-13T02:23:06;10.60;99.90
30534;DHT22;17318;52.390;9.754;2023-03-13T02:28:21;10.50;99.90
30534;DHT22;17318;52.390;9.754;2023-03-13T02:30:50;10.50;99.90
30534;DHT22;17318;52.390;9.754;2023-03-13T02:33:19;10.50;99.90
30534;DHT22;17318;52.390;9.754;2023-03-13T02:35:46;10.50;99.90
30534;DHT22;17318;52.390;9.754;2023-03-13T02:38:17;10.60;99.90
30534;DHT22;17318;52.390;9.754;2023-03-13T02:40:45;10.50;99.90
30534;DHT22;17318;52.390;9.754;2023-03-13T02:43:20;10.50;99.90
30534;DHT22;17318;52.390;9.754;2023-03-13T02:51:13;10.50;99.90
30534;DHT22;17318;52.390;9.754;2023-03-13T02:53:41;10.50;99.90
30534;DHT22;17318;52.390;9.754;2023-03-13T02:56:07;10.40;99.90
30534;DHT22;17318;52.390;9.754;2023-03-13T02:58:43;10.40;99.90
30534;DHT22;17318;52.390;9.754;2023-03-13T03:01:08;10.30;99.90
30534;DHT22;17318;52.390;9.754;2023-03-13T03:03:34;10.30;99.90
30534;DHT22;17318;52.390;9.754;2023-03-13T03:06:01;10.30;99.90
30534;DHT22;17318;52.390;9.754;2023-03-13T03:08:27;10.40;99.90
30534;DHT22;17318;52.390;9.754;2023-03-13T03:10:53;10.40;99.90
30534;DHT22;17318;52.390;9.754;2023-03-13T03:13:18;10.40;99.90
30534;DHT22;17318;52.390;9.754;2023-03-13T03:15:44;10.40;99.90
30534;DHT22;17318;52.390;9.754;2023-03-13T03:18:09;10.30;99.90
30534;DHT22;17318;52.390;9.754;2023-03-13T03:20:35;10.30;99.90
30534;DHT22;17318;52.390;9.754;2023-03-13T03:23:01;10.30;99.90
30534;DHT22;17318;52.390;9.754;2023-03-13T03:25:26;10.30;99.90
30534;DHT22;17318;52.390;9.754;2023-03-13T03:27:52;10.30;99.90
30534;DHT22;17318;52.390;9.754;2023-03-13T03:30:18;10.20;99.90
30534;DHT22;17318;52.390;9.754;2023-03-13T03:32:43;10.20;99.90
30534;DHT22;17318;52.390;9.754;2023-03-13T03:35:09;10.30;99.90
30534;DHT22;17318;52.390;9.754;2023-03-13T03:37:35;10.20;99.90
30534;DHT22;17318;52.390;9.754;2023-03-13T03:40:00;10.10;99.90
30534;DHT22;17318;52.390;9.754;2023-03-13T03:42:26;10.20;99.90
30534;DHT22;17318;52.390;9.754;2023-03-13T03:44:52;10.10;99.90
30534;DHT22;17318;52.390;9.754;2023-03-13T03:47:17;10.10;99.90
30534;DHT22;17318;52.390;9.754;2023-03-13T03:49:43;10.10;99.90
30534;DHT22;17318;52.390;9.754;2023-03-13T03:52:09;10.20;99.90
30534;DHT22;17318;52.390;9.754;2023-03-13T03:54:34;10.20;99.90
30534;DHT22;17318;52.390;9.754;2023-03-13T03:57:00;10.20;99.90
30534;DHT22;17318;52.390;9.754;2023-03-13T03:59:25;10.10;99.90
30534;DHT22;17318;52.390;9.754;2023-03-13T04:01:51;10.20;99.90
30534;DHT22;17318;52.390;9.754;2023-03-13T04:04:17;10.20;99.90
30534;DHT22;17318;52.390;9.754;2023-03-13T04:06:42;10.20;99.90
30534;DHT22;17318;52.390;9.754;2023-03-13T04:09:08;10.20;99.90
30534;DHT22;17318;52.390;9.754;2023-03-13T04:11:33;10.20;99.90
30534;DHT22;17318;52.390;9.754;2023-03-13T04:13:59;10.10;99.90
30534;DHT22;17318;52.390;9.754;2023-03-13T04:16:25;10.20;99.90
30534;DHT22;17318;52.390;9.754;2023-03-13T04:18:50;10.20;99.90
30534;DHT22;17318;52.390;9.754;2023-03-13T04:21:16;10.10;99.90
30534;DHT22;17318;52.390;9.754;2023-03-13T04:23:42;10.10;99.90
30534;DHT22;17318;52.390;9.754;2023-03-13T04:26:07;10.10;99.90
30534;DHT22;17318;52.390;9.754;2023-03-13T04:28:33;10.20;99.90
30534;DHT22;17318;52.390;9.754;2023-03-13T04:30:58;10.20;99.90
30534;DHT22;17318;52.390;9.754;2023-03-13T04:33:25;10.10;99.90
30534;DHT22;17318;52.390;9.754;2023-03-13T04:35:51;10.10;99.90
30534;DHT22;17318;52.390;9.754;2023-03-13T04:38:17;10.10;99.90
30534;DHT22;17318;52.390;9.754;2023-03-13T04:40:42;10.10;99.90
30534;DHT22;17318;52.390;9.754;2023-03-13T04:43:08;10.10;99.90
30534;DHT22;17318;52.390;9.754;2023-03-13T04:45:34;10.10;99.90
30534;DHT22;17318;52.390;9.754;2023-03-13T04:47:59;10.10;99.90
30534;DHT22;17318;52.390;9.754;2023-03-13T04:50:25;10.10;99.90
30534;DHT22;17318;52.390;9.754;2023-03-13T04:52:51;10.00;99.90
30534;DHT22;17318;52.390;9.754;2023-03-13T04:55:16;10.10;99.90
30534;DHT22;17318;52.390;9.754;2023-03-13T04:57:42;10.10;99.90
30534;DHT22;17318;52.390;9.754;2023-03-13T05:00:08;10.10;99.90
30534;DHT22;17318;52.390;9.754;2023-03-13T05:02:35;10.00;99.90
30534;DHT22;17318;52.390;9.754;2023-03-13T05:05:00;10.10;99.90
30534;DHT22;17318;52.390;9.754;2023-03-13T05:07:26;10.10;99.90
30534;DHT22;17318;52.390;9.754;2023-03-13T05:09:51;10.10;99.90
30534;DHT22;17318;52.390;9.754;2023-03-13T05:12:17;10.10;99.90
30534;DHT22;17318;52.390;9.754;2023-03-13T05:14:43;10.10;99.90
30534;DHT22;17318;52.390;9.754;2023-03-13T05:17:08;10.10;99.90
30534;DHT22;17318;52.390;9.754;2023-03-13T05:19:35;10.10;99.90
30534;DHT22;17318;52.390;9.754;2023-03-13T05:22:01;10.10;99.90
30534;DHT22;17318;52.390;9.754;2023-03-13T05:24:26;10.10;99.90
30534;DHT22;17318;52.390;9.754;2023-03-13T05:26:52;10.30;99.90
30534;DHT22;17318;52.390;9.754;2023-03-13T05:29:18;10.20;99.90
30534;DHT22;17318;52.390;9.754;2023-03-13T05:31:43;10.10;99.90
30534;DHT22;17318;52.390;9.754;2023-03-13T05:34:09;10.20;99.90
30534;DHT22;17318;52.390;9.754;2023-03-13T05:36:35;10.20;99.90
30534;DHT22;17318;52.390;9.754;2023-03-13T05:39:00;10.20;99.90
30534;DHT22;17318;52.390;9.754;2023-03-13T05:41:26;10.20;99.90
30534;DHT22;17318;52.390;9.754;2023-03-13T05:43:51;10.30;99.90
30534;DHT22;17318;52.390;9.754;2023-03-13T05:46:17;10.30;99.90
30534;DHT22;17318;52.390;9.754;2023-03-13T05:48:43;10.30;99.90
30534;DHT22;17318;52.390;9.754;2023-03-13T05:51:10;10.30;99.90
30534;DHT22;17318;52.390;9.754;2023-03-13T05:53:35;10.40;99.90
30534;DHT22;17318;52.390;9.754;2023-03-13T05:56:01;10.30;99.90
30534;DHT22;17318;52.390;9.754;2023-03-13T05:58:26;10.40;99.90
30534;DHT22;17318;52.390;9.754;2023-03-13T06:00:52;10.40;99.90
30534;DHT22;17318;52.390;9.754;2023-03-13T06:03:18;10.40;99.90
30534;DHT22;17318;52.390;9.754;2023-03-13T06:05:43;10.50;99.90
30534;DHT22;17318;52.390;9.754;2023-03-13T06:08:09;10.50;99.90
30534;DHT22;17318;52.390;9.754;2023-03-13T06:10:35;10.60;99.90
30534;DHT22;17318;52.390;9.754;2023-03-13T06:13:00;10.60;99.90
30534;DHT22;17318;52.390;9.754;2023-03-13T06:15:26;10.60;99.90
30534;DHT22;17318;52.390;9.754;2023-03-13T06:17:52;10.50;99.90
30534;DHT22;17318;52.390;9.754;2023-03-13T06:20:17;10.60;99.90
30534;DHT22;17318;52.390;9.754;2023-03-13T06:22:43;10.60;99.90
30534;DHT22;17318;52.390;9.754;2023-03-13T06:25:09;10.70;99.90
30534;DHT22;17318;52.390;9.754;2023-03-13T06:27:35;10.70;99.90
30534;DHT22;17318;52.390;9.754;2023-03-13T06:30:01;10.70;99.90
30534;DHT22;17318;52.390;9.754;2023-03-13T06:32:27;10.70;99.90
30534;DHT22;17318;52.390;9.754;2023-03-13T06:34:52;10.70;99.90
30534;DHT22;17318;52.390;9.754;2023-03-13T06:37:18;10.70;99.90
30534;DHT22;17318;52.390;9.754;2023-03-13T06:39:44;10.70;99.90
30534;DHT22;17318;52.390;9.754;2023-03-13T06:42:09;10.80;99.90
30534;DHT22;17318;52.390;9.754;2023-03-13T06:44:35;10.80;99.90
30534;DHT22;17318;52.390;9.754;2023-03-13T06:47:01;10.80;99.90
30534;DHT22;17318;52.390;9.754;2023-03-13T06:49:27;10.80;99.90
30534;DHT22;17318;52.390;9.754;2023-03-13T06:51:52;10.90;99.90
30534;DHT22;17318;52.390;9.754;2023-03-13T06:54:18;11.00;99.90
30534;DHT22;17318;52.390;9.754;2023-03-13T06:56:44;11.00;99.90
30534;DHT22;17318;52.390;9.754;2023-03-13T06:59:09;11.10;99.90
30534;DHT22;17318;52.390;9.754;2023-03-13T07:01:35;11.00;99.90
30534;DHT22;17318;52.390;9.754;2023-03-13T07:04:01;11.10;99.90
30534;DHT22;17318;52.390;9.754;2023-03-13T07:06:26;11.20;99.90
30534;DHT22;17318;52.390;9.754;2023-03-13T07:08:52;11.10;99.90
30534;DHT22;17318;52.390;9.754;2023-03-13T07:11:18;11.10;99.90
30534;DHT22;17318;52.390;9.754;2023-03-13T07:13:44;11.20;99.90
30534;DHT22;17318;52.390;9.754;2023-03-13T07:16:11;11.20;99.90
30534;DHT22;17318;52.390;9.754;2023-03-13T07:18:38;11.20;99.90
30534;DHT22;17318;52.390;9.754;2023-03-13T07:21:06;11.30;99.90
30534;DHT22;17318;52.390;9.754;2023-03-13T07:23:34;11.20;99.90
30534;DHT22;17318;52.390;9.754;2023-03-13T07:26:02;11.30;99.90
30534;DHT22;17318;52.390;9.754;2023-03-13T07:28:29;11.50;99.90
30534;DHT22;17318;52.390;9.754;2023-03-13T07:31:03;11.40;99.90
30534;DHT22;17318;52.390;9.754;2023-03-13T07:33:29;11.40;99.90
30534;DHT22;17318;52.390;9.754;2023-03-13T07:35:54;11.40;99.90
30534;DHT22;17318;52.390;9.754;2023-03-13T07:38:20;11.50;99.90
30534;DHT22;17318;52.390;9.754;2023-03-13T07:40:51;11.50;99.90
30534;DHT22;17318;52.390;9.754;2023-03-13T07:43:17;11.70;99.90
30534;DHT22;17318;52.390;9.754;2023-03-13T07:45:50;11.60;99.90
30534;DHT22;17318;52.390;9.754;2023-03-13T07:48:17;11.60;99.90
30534;DHT22;17318;52.390;9.754;2023-03-13T07:50:43;11.60;99.90
30534;DHT22;17318;52.390;9.754;2023-03-13T07:53:08;11.70;99.90
30534;DHT22;17318;52.390;9.754;2023-03-13T07:55:34;11.70;99.90
30534;DHT22;17318;52.390;9.754;2023-03-13T07:57:59;11.70;99.90
30534;DHT22;17318;52.390;9.754;2023-03-13T08:00:25;11.90;99.90
30534;DHT22;17318;52.390;9.754;2023-03-13T08:02:51;11.90;99.90
30534;DHT22;17318;52.390;9.754;2023-03-13T08:05:17;11.90;99.90
30534;DHT22;17318;52.390;9.754;2023-03-13T08:07:43;12.00;99.90
30534;DHT22;17318;52.390;9.754;2023-03-13T08:10:10;12.20;99.90
30534;DHT22;17318;52.390;9.754;2023-03-13T08:12:35;12.20;99.90
30534;DHT22;17318;52.390;9.754;2023-03-13T08:15:01;12.20;99.90
30534;DHT22;17318;52.390;9.754;2023-03-13T08:17:29;12.40;99.90
30534;DHT22;17318;52.390;9.754;2023-03-13T08:19:55;12.40;99.90
30534;DHT22;17318;52.390;9.754;2023-03-13T08:22:21;12.40;99.90
30534;DHT22;17318;52.390;9.754;2023-03-13T08:24:47;12.50;99.90
30534;DHT22;17318;52.390;9.754;2023-03-13T08:27:12;12.60;99.90
30534;DHT22;17318;52.390;9.754;2023-03-13T08:29:38;12.70;99.90
30534;DHT22;17318;52.390;9.754;2023-03-13T08:32:04;12.70;99.90
30534;DHT22;17318;52.390;9.754;2023-03-13T08:34:30;12.80;99.90
30534;DHT22;17318;52.390;9.754;2023-03-13T08:36:55;12.90;99.90
30534;DHT22;17318;52.390;9.754;2023-03-13T08:39:22;12.90;99.90
30534;DHT22;17318;52.390;9.754;2023-03-13T08:41:48;12.90;99.90
30534;DHT22;17318;52.390;9.754;2023-03-13T08:44:16;13.00;99.90
30534;DHT22;17318;52.390;9.754;2023-03-13T08:46:43;13.10;99.90
30534;DHT22;17318;52.390;9.754;2023-03-13T08:49:09;13.10;99.90
30534;DHT22;17318;52.390;9.754;2023-03-13T08:51:36;13.20;99.90
30534;DHT22;17318;52.390;9.754;2023-03-13T08:54:03;13.30;99.90
30534;DHT22;17318;52.390;9.754;2023-03-13T08:56:30;13.30;99.90
30534;DHT22;17318;52.390;9.754;2023-03-13T08:58:58;13.30;99.90
30534;DHT22;17318;52.390;9.754;2023-03-13T09:01:28;13.30;99.90
30534;DHT22;17318;52.390;9.754;2023-03-13T09:03:54;13.40;99.90
30534;DHT22;17318;52.390;9.754;2023-03-13T09:06:20;13.40;99.90
30534;DHT22;17318;52.390;9.754;2023-03-13T09:08:46;13.50;99.90
30534;DHT22;17318;52.390;9.754;2023-03-13T09:11:14;13.50;99.90
30534;DHT22;17318;52.390;9.754;2023-03-13T09:13:42;13.50;99.90
30534;DHT22;17318;52.390;9.754;2023-03-13T09:16:09;13.60;99.90
30534;DHT22;17318;52.390;9.754;2023-03-13T09:18:35;13.70;99.90
30534;DHT22;17318;52.390;9.754;2023-03-13T09:21:02;13.70;99.90
30534;DHT22;17318;52.390;9.754;2023-03-13T09:23:28;13.80;99.90
30534;DHT22;17318;52.390;9.754;2023-03-13T09:25:55;13.70;99.90
30534;DHT22;17318;52.390;9.754;2023-03-13T09:28:23;13.80;99.90
30534;DHT22;17318;52.390;9.754;2023-03-13T09:30:48;13.80;99.90
30534;DHT22;17318;52.390;9.754;2023-03-13T09:33:15;13.80;99.90
30534;DHT22;17318;52.390;9.754;2023-03-13T09:35:41;13.80;99.90
30534;DHT22;17318;52.390;9.754;2023-03-13T09:38:07;13.90;99.90
30534;DHT22;17318;52.390;9.754;2023-03-13T09:40:46;13.90;99.90
30534;DHT22;17318;52.390;9.754;2023-03-13T09:43:40;13.90;99.90
30534;DHT22;17318;52.390;9.754;2023-03-13T09:49:04;13.90;99.90
30534;DHT22;17318;52.390;9.754;2023-03-13T09:51:38;14.00;99.90
30534;DHT22;17318;52.390;9.754;2023-03-13T09:54:21;14.00;99.90
30534;DHT22;17318;52.390;9.754;2023-03-13T09:56:56;14.10;99.90
30534;DHT22;17318;52.390;9.754;2023-03-13T09:59:28;14.10;99.90
30534;DHT22;17318;52.390;9.754;2023-03-13T10:01:56;14.10;99.90
30534;DHT22;17318;52.390;9.754;2023-03-13T10:04:28;14.20;99.90
30534;DHT22;17318;52.390;9.754;2023-03-13T10:06:55;14.20;99.90
30534;DHT22;17318;52.390;9.754;2023-03-13T10:09:32;14.20;99.90
30534;DHT22;17318;52.390;9.754;2023-03-13T10:12:12;14.30;99.90
30534;DHT22;17318;52.390;9.754;2023-03-13T10:14:48;14.30;99.90
30534;DHT22;17318;52.390;9.754;2023-03-13T10:17:35;14.30;99.90
30534;DHT22;17318;52.390;9.754;2023-03-13T10:22:50;14.40;99.90
30534;DHT22;17318;52.390;9.754;2023-03-13T10:27:51;14.40;99.90
30534;DHT22;17318;52.390;9.754;2023-03-13T10:30:26;14.40;99.90
30534;DHT22;17318;52.390;9.754;2023-03-13T10:35:37;14.40;99.90
30534;DHT22;17318;52.390;9.754;2023-03-13T10:38:11;14.50;99.90
30534;DHT22;17318;52.390;9.754;2023-03-13T10:40:37;14.50;99.90
30534;DHT22;17318;52.390;9.754;2023-03-13T10:43:16;14.60;99.90
30534;DHT22;17318;52.390;9.754;2023-03-13T10:45:41;14.70;99.90
30534;DHT22;17318;52.390;9.754;2023-03-13T10:48:18;14.70;99.90
30534;DHT22;17318;52.390;9.754;2023-03-13T10:50:47;14.80;99.90
30534;DHT22;17318;52.390;9.754;2023-03-13T10:55:48;15.30;99.90
30534;DHT22;17318;52.390;9.754;2023-03-13T10:58:27;15.60;99.90
30534;DHT22;17318;52.390;9.754;2023-03-13T11:01:13;16.50;99.90
30534;DHT22;17318;52.390;9.754;2023-03-13T11:03:40;17.00;99.90
30534;DHT22;17318;52.390;9.754;2023-03-13T11:06:25;17.20;99.90
30534;DHT22;17318;52.390;9.754;2023-03-13T11:11:54;16.90;99.90
30534;DHT22;17318;52.390;9.754;2023-03-13T11:14:24;16.80;99.90
30534;DHT22;17318;52.390;9.754;2023-03-13T11:16:51;16.70;99.90
30534;DHT22;17318;52.390;9.754;2023-03-13T11:19:36;16.50;99.90
30534;DHT22;17318;52.390;9.754;2023-03-13T11:22:21;16.40;99.90
30534;DHT22;17318;52.390;9.754;2023-03-13T11:24:58;16.40;99.90
30534;DHT22;17318;52.390;9.754;2023-03-13T11:27:45;16.80;99.90
30534;DHT22;17318;52.390;9.754;2023-03-13T11:33:13;16.70;99.90
30534;DHT22;17318;52.390;9.754;2023-03-13T11:36:02;17.00;99.90
30534;DHT22;17318;52.390;9.754;2023-03-13T11:38:40;17.10;99.90
30534;DHT22;17318;52.390;9.754;2023-03-13T11:43:59;17.20;99.40
30534;DHT22;17318;52.390;9.754;2023-03-13T11:46:48;17.00;99.70
30534;DHT22;17318;52.390;9.754;2023-03-13T11:49:46;17.10;99.80
30534;DHT22;17318;52.390;9.754;2023-03-13T11:52:18;17.60;99.00
30534;DHT22;17318;52.390;9.754;2023-03-13T11:54:55;18.10;98.20
30534;DHT22;17318;52.390;9.754;2023-03-13T11:57:30;18.50;97.20
30534;DHT22;17318;52.390;9.754;2023-03-13T12:00:19;18.50;97.00
30534;DHT22;17318;52.390;9.754;2023-03-13T12:02:52;18.60;97.40
30534;DHT22;17318;52.390;9.754;2023-03-13T12:05:20;18.40;96.20
30534;DHT22;17318;52.390;9.754;2023-03-13T12:08:06;18.30;96.20
30534;DHT22;17318;52.390;9.754;2023-03-13T12:10:43;18.20;96.30
30534;DHT22;17318;52.390;9.754;2023-03-13T12:13:17;17.90;96.60
30534;DHT22;17318;52.390;9.754;2023-03-13T12:15:48;18.00;96.90
30534;DHT22;17318;52.390;9.754;2023-03-13T12:18:29;18.30;96.80
30534;DHT22;17318;52.390;9.754;2023-03-13T12:20:57;18.00;96.40
30534;DHT22;17318;52.390;9.754;2023-03-13T12:23:39;18.10;96.40
30534;DHT22;17318;52.390;9.754;2023-03-13T12:26:12;18.00;95.90
30534;DHT22;17318;52.390;9.754;2023-03-13T12:28:51;18.20;96.00
30534;DHT22;17318;52.390;9.754;2023-03-13T12:31:35;18.10;95.70
30534;DHT22;17318;52.390;9.754;2023-03-13T12:34:10;18.10;95.10
30534;DHT22;17318;52.390;9.754;2023-03-13T12:39:53;18.20;95.00
30534;DHT22;17318;52.390;9.754;2023-03-13T12:42:39;18.30;94.70
30534;DHT22;17318;52.390;9.754;2023-03-13T12:45:07;18.30;94.80
30534;DHT22;17318;52.390;9.754;2023-03-13T13:01:32;18.30;94.30
30534;DHT22;17318;52.390;9.754;2023-03-13T13:04:26;18.30;94.60
30534;DHT22;17318;52.390;9.754;2023-03-13T13:09:38;18.30;94.70
30534;DHT22;17318;52.390;9.754;2023-03-13T13:12:24;18.40;94.90
30534;DHT22;17318;52.390;9.754;2023-03-13T13:17:21;18.30;94.70
30534;DHT22;17318;52.390;9.754;2023-03-13T13:19:49;18.30;94.30
30534;DHT22;17318;52.390;9.754;2023-03-13T13:25:29;18.40;94.40
30534;DHT22;17318;52.390;9.754;2023-03-13T13:28:02;18.30;94.20
30534;DHT22;17318;52.390;9.754;2023-03-13T13:30:35;18.30;94.30
30534;DHT22;17318;52.390;9.754;2023-03-13T13:38:43;18.30;94.10
30534;DHT22;17318;52.390;9.754;2023-03-13T13:43:36;18.20;93.70
30534;DHT22;17318;52.390;9.754;2023-03-13T13:46:17;18.20;93.60
30534;DHT22;17318;52.390;9.754;2023-03-13T13:48:44;18.20;93.40
30534;DHT22;17318;52.390;9.754;2023-03-13T13:57:00;18.10;92.70
30534;DHT22;17318;52.390;9.754;2023-03-13T13:59:30;18.10;92.60
30534;DHT22;17318;52.390;9.754;2023-03-13T14:02:11;18.10;92.60
30534;DHT22;17318;52.390;9.754;2023-03-13T14:04:42;18.20;92.70
30534;DHT22;17318;52.390;9.754;2023-03-13T14:07:23;18.20;92.30
30534;DHT22;17318;52.390;9.754;2023-03-13T14:10:04;18.20;92.60
30534;DHT22;17318;52.390;9.754;2023-03-13T14:12:36;18.30;92.30
30534;DHT22;17318;52.390;9.754;2023-03-13T14:15:17;18.20;92.00
30534;DHT22;17318;52.390;9.754;2023-03-13T14:22:46;18.20;91.80
30534;DHT22;17318;52.390;9.754;2023-03-13T14:25:12;18.10;92.00
30534;DHT22;17318;52.390;9.754;2023-03-13T14:27:42;18.10;92.20
30534;DHT22;17318;52.390;9.754;2023-03-13T14:30:10;18.10;92.60
30534;DHT22;17318;52.390;9.754;2023-03-13T14:32:37;18.10;92.70
30534;DHT22;17318;52.390;9.754;2023-03-13T14:35:07;18.10;92.90
30534;DHT22;17318;52.390;9.754;2023-03-13T14:37:41;18.10;92.90
30534;DHT22;17318;52.390;9.754;2023-03-13T14:40:18;18.10;92.90
30534;DHT22;17318;52.390;9.754;2023-03-13T14:42:50;18.10;92.90
30534;DHT22;17318;52.390;9.754;2023-03-13T14:45:30;18.10;93.20
30534;DHT22;17318;52.390;9.754;2023-03-13T14:48:46;18.10;93.30
30534;DHT22;17318;52.390;9.754;2023-03-13T14:51:00;18.10;93.20
30534;DHT22;17318;52.390;9.754;2023-03-13T14:53:27;18.00;93.10
30534;DHT22;17318;52.390;9.754;2023-03-13T14:56:10;18.00;92.90
30534;DHT22;17318;52.390;9.754;2023-03-13T14:58:37;18.00;92.80
30534;DHT22;17318;52.390;9.754;2023-03-13T15:01:25;18.00;92.80
30534;DHT22;17318;52.390;9.754;2023-03-13T15:03:52;17.90;92.50
30534;DHT22;17318;52.390;9.754;2023-03-13T15:06:20;17.90;92.60
30534;DHT22;17318;52.390;9.754;2023-03-13T15:11:38;17.90;92.30
30534;DHT22;17318;52.390;9.754;2023-03-13T15:14:30;17.90;92.40
30534;DHT22;17318;52.390;9.754;2023-03-13T15:16:56;17.90;92.60
30534;DHT22;17318;52.390;9.754;2023-03-13T15:19:22;17.90;92.60
30534;DHT22;17318;52.390;9.754;2023-03-13T15:21:50;17.90;92.50
30534;DHT22;17318;52.390;9.754;2023-03-13T15:24:16;17.90;92.50
30534;DHT22;17318;52.390;9.754;2023-03-13T15:26:42;17.90;92.70
30534;DHT22;17318;52.390;9.754;2023-03-13T15:29:09;17.90;93.00
30534;DHT22;17318;52.390;9.754;2023-03-13T15:31:36;17.90;93.00
30534;DHT22;17318;52.390;9.754;2023-03-13T15:34:02;17.90;93.40
30534;DHT22;17318;52.390;9.754;2023-03-13T15:36:29;17.90;93.70
30534;DHT22;17318;52.390;9.754;2023-03-13T15:38:56;17.80;94.00
30534;DHT22;17318;52.390;9.754;2023-03-13T15:41:22;17.80;94.20
30534;DHT22;17318;52.390;9.754;2023-03-13T15:43:49;17.70;94.10
30534;DHT22;17318;52.390;9.754;2023-03-13T15:46:19;17.80;94.10
30534;DHT22;17318;52.390;9.754;2023-03-13T15:48:45;17.70;93.60
30534;DHT22;17318;52.390;9.754;2023-03-13T15:51:13;17.70;93.20
30534;DHT22;17318;52.390;9.754;2023-03-13T15:53:39;17.70;93.50
30534;DHT22;17318;52.390;9.754;2023-03-13T15:56:13;17.70;93.50
30534;DHT22;17318;52.390;9.754;2023-03-13T15:58:39;17.70;93.40
30534;DHT22;17318;52.390;9.754;2023-03-13T16:01:04;17.60;93.30
30534;DHT22;17318;52.390;9.754;2023-03-13T16:03:30;17.50;93.40
30534;DHT22;17318;52.390;9.754;2023-03-13T16:05:56;17.60;93.60
30534;DHT22;17318;52.390;9.754;2023-03-13T16:08:27;17.60;93.70
30534;DHT22;17318;52.390;9.754;2023-03-13T16:10:53;17.50;93.70
30534;DHT22;17318;52.390;9.754;2023-03-13T16:13:20;17.50;93.70
30534;DHT22;17318;52.390;9.754;2023-03-13T16:15:46;17.40;93.80
30534;DHT22;17318;52.390;9.754;2023-03-13T16:18:19;17.40;93.80
30534;DHT22;17318;52.390;9.754;2023-03-13T16:20:46;17.50;93.80
30534;DHT22;17318;52.390;9.754;2023-03-13T16:23:12;17.40;93.90
30534;DHT22;17318;52.390;9.754;2023-03-13T16:25:38;17.40;94.00
30534;DHT22;17318;52.390;9.754;2023-03-13T16:28:04;17.30;94.00
30534;DHT22;17318;52.390;9.754;2023-03-13T16:30:33;17.30;94.00
30534;DHT22;17318;52.390;9.754;2023-03-13T16:32:59;17.20;93.80
30534;DHT22;17318;52.390;9.754;2023-03-13T16:35:26;17.20;93.90
30534;DHT22;17318;52.390;9.754;2023-03-13T16:37:54;17.30;94.00
30534;DHT22;17318;52.390;9.754;2023-03-13T16:40:23;17.20;94.00
30534;DHT22;17318;52.390;9.754;2023-03-13T16:42:49;17.20;94.30
30534;DHT22;17318;52.390;9.754;2023-03-13T16:45:15;17.10;94.10
30534;DHT22;17318;52.390;9.754;2023-03-13T16:47:42;17.10;94.20
30534;DHT22;17318;52.390;9.754;2023-03-13T16:50:20;17.10;94.10
30534;DHT22;17318;52.390;9.754;2023-03-13T16:52:47;17.10;94.10
30534;DHT22;17318;52.390;9.754;2023-03-13T16:55:12;17.10;94.00
30534;DHT22;17318;52.390;9.754;2023-03-13T16:57:38;17.10;94.00
30534;DHT22;17318;52.390;9.754;2023-03-13T17:00:26;17.00;94.00
30534;DHT22;17318;52.390;9.754;2023-03-13T17:02:52;17.00;94.00